Time;durP1;ratioP1;P1;durP2;ratioP2;P2;SDS_P1;SDS_P2;PMS_P1;PMS_P2;Temp;Humidity;BMP_temperature;BMP_pressure;BME280_temperature;BME280_humidity;BME280_pressure;Samples;Min_cycle;Max_cycle;Signal;HPM_P1;HPM_P2
2021/08/01 00:00:14;;;;;;;4.38;2.08;;;13.50;99.90;;;;;;4947293;29;20026;-78
2021/08/01 00:02:41;;;;;;;4.13;1.63;;;13.40;99.90;;;;;;4931354;29;20481;-78
2021/08/01 00:05:09;;;;;;;4.53;1.92;;;13.40;99.90;;;;;;4931256;29;20032;-77
2021/08/01 00:07:35;;;;;;;2.97;1.80;;;13.40;99.90;;;;;;4930939;29;20127;-77
2021/08/01 00:10:02;;;;;;;3.85;2.00;;;13.40;99.90;;;;;;4931150;29;20079;-77
2021/08/01 00:12:28;;;;;;;3.65;1.63;;;13.40;99.90;;;;;;4948310;29;20036;-77
2021/08/01 00:14:55;;;;;;;2.97;1.40;;;13.30;99.90;;;;;;4931198;29;20035;-78
2021/08/01 00:17:21;;;;;;;4.40;2.08;;;13.40;99.90;;;;;;4931655;29;20050;-77
2021/08/01 00:19:46;;;;;;;3.40;2.05;;;13.40;99.90;;;;;;4934256;29;20031;-78
2021/08/01 00:22:12;;;;;;;5.65;2.25;;;13.30;99.90;;;;;;4934212;29;20038;-78
2021/08/01 00:24:38;;;;;;;4.22;2.20;;;13.30;99.90;;;;;;4950104;29;20059;-78
2021/08/01 00:27:04;;;;;;;3.75;2.17;;;13.30;99.90;;;;;;4949854;29;20036;-78
2021/08/01 00:29:30;;;;;;;4.70;2.42;;;13.30;99.90;;;;;;4967307;29;20091;-78
2021/08/01 00:31:59;;;;;;;3.55;2.17;;;13.30;99.90;;;;;;4967163;29;20031;-78
2021/08/01 00:34:25;;;;;;;4.95;2.38;;;13.20;99.90;;;;;;4950001;29;20059;-77
2021/08/01 00:36:50;;;;;;;6.85;2.85;;;13.30;99.90;;;;;;4959104;28;20043;-77
2021/08/01 00:39:16;;;;;;;4.35;2.67;;;13.20;99.90;;;;;;4951868;29;20043;-77
2021/08/01 00:41:41;;;;;;;4.38;2.63;;;13.20;99.90;;;;;;4951821;29;20397;-77
2021/08/01 00:44:07;;;;;;;4.43;3.33;;;13.20;99.90;;;;;;4951865;29;20087;-77
2021/08/01 00:46:53;;;;;;;4.20;3.25;;;13.10;99.90;;;;;;4934113;29;20051;-77
2021/08/01 00:49:19;;;;;;;4.18;2.92;;;13.10;99.90;;;;;;4873666;29;20113;-77
2021/08/01 00:51:45;;;;;;;5.70;3.30;;;13.10;99.90;;;;;;4873753;29;20042;-77
2021/08/01 00:54:11;;;;;;;4.97;3.38;;;13.10;99.90;;;;;;4873816;29;20045;-76
2021/08/01 00:56:37;;;;;;;4.63;3.28;;;13.20;99.90;;;;;;4873548;29;20075;-77
2021/08/01 00:59:03;;;;;;;6.07;3.80;;;13.30;99.90;;;;;;4873680;29;20063;-77
2021/08/01 01:01:42;;;;;;;4.63;3.90;;;13.30;99.90;;;;;;4873623;29;20221;-78
2021/08/01 01:04:28;;;;;;;5.65;4.30;;;13.20;99.90;;;;;;4858539;29;20040;-77
2021/08/01 01:07:08;;;;;;;5.40;4.03;;;13.30;99.90;;;;;;4873423;29;20045;-78
2021/08/01 01:09:55;;;;;;;4.90;3.95;;;13.20;99.90;;;;;;4873641;29;20030;-77
2021/08/01 01:12:32;;;;;;;6.15;4.45;;;13.20;99.90;;;;;;4858343;29;20097;-77
2021/08/01 01:15:02;;;;;;;5.35;3.72;;;13.20;99.90;;;;;;4858032;29;20068;-77
2021/08/01 01:17:32;;;;;;;5.88;4.43;;;13.30;99.90;;;;;;4890837;29;20041;-78
2021/08/01 01:20:28;;;;;;;5.57;4.65;;;13.30;99.90;;;;;;4892086;29;20062;-78
2021/08/01 01:23:33;;;;;;;8.32;4.80;;;13.30;99.90;;;;;;4876384;29;20033;-77
2021/08/01 01:26:18;;;;;;;7.90;4.97;;;13.30;99.90;;;;;;4916608;29;20043;-77
2021/08/01 01:28:50;;;;;;;5.65;4.43;;;13.30;99.90;;;;;;4933862;29;20050;-77
2021/08/01 01:31:16;;;;;;;5.50;4.30;;;13.20;99.90;;;;;;4933761;29;20028;-77
2021/08/01 01:34:12;;;;;;;6.45;5.13;;;13.20;99.90;;;;;;4917788;29;20023;-77
2021/08/01 01:36:42;;;;;;;5.53;4.07;;;13.30;99.90;;;;;;4910326;29;20063;-77
2021/08/01 01:39:11;;;;;;;6.35;4.82;;;13.20;99.90;;;;;;4914754;29;20100;-77
2021/08/01 01:42:02;;;;;;;5.30;4.05;;;13.30;99.90;;;;;;4917721;29;20028;-78
2021/08/01 01:44:46;;;;;;;7.47;4.60;;;13.30;99.90;;;;;;4931763;29;20039;-78
2021/08/01 01:47:15;;;;;;;9.15;5.65;;;13.20;99.90;;;;;;4914132;29;20059;-78
2021/08/01 01:49:43;;;;;;;9.32;5.55;;;13.20;99.90;;;;;;4931972;29;20075;-78
2021/08/01 01:52:14;;;;;;;7.15;4.20;;;13.10;99.90;;;;;;4950437;29;20032;-77
2021/08/01 01:54:44;;;;;;;8.40;4.82;;;13.10;99.90;;;;;;4933495;29;20091;-78
2021/08/01 01:57:10;;;;;;;5.80;4.57;;;13.10;99.90;;;;;;4933074;29;20043;-78
2021/08/01 01:59:38;;;;;;;5.72;4.20;;;13.10;99.90;;;;;;4950377;29;20377;-78
2021/08/01 02:02:06;;;;;;;8.38;4.88;;;13.00;99.90;;;;;;4933569;29;20028;-78
2021/08/01 02:04:33;;;;;;;9.85;5.20;;;13.00;99.90;;;;;;4932981;29;20031;-78
2021/08/01 02:07:20;;;;;;;6.43;4.43;;;12.90;99.90;;;;;;4950166;29;20187;-78
2021/08/01 02:09:57;;;;;;;7.07;4.82;;;13.00;99.90;;;;;;4918048;29;20030;-78
2021/08/01 02:12:44;;;;;;;10.10;5.03;;;13.00;99.90;;;;;;4917376;29;20035;-77
2021/08/01 02:15:19;;;;;;;7.22;4.93;;;12.90;99.90;;;;;;4934731;29;20039;-78
2021/08/01 02:17:57;;;;;;;6.07;4.82;;;13.00;99.90;;;;;;4951676;29;20042;-76
2021/08/01 02:20:29;;;;;;;6.18;4.75;;;12.90;99.90;;;;;;4952248;29;20039;-77
2021/08/01 02:23:23;;;;;;;7.47;5.45;;;12.90;99.90;;;;;;4939382;29;20073;-78
2021/08/01 02:25:50;;;;;;;8.77;5.13;;;12.90;99.90;;;;;;4953587;29;20090;-77
2021/08/01 02:28:20;;;;;;;7.07;5.05;;;12.90;99.90;;;;;;4952220;29;20027;-77
2021/08/01 02:30:48;;;;;;;7.45;5.15;;;12.80;99.90;;;;;;4969097;29;20054;-78
2021/08/01 02:33:16;;;;;;;8.32;5.25;;;12.70;99.90;;;;;;4967618;29;20074;-78
2021/08/01 02:35:43;;;;;;;8.68;5.07;;;12.90;99.90;;;;;;4951424;29;20043;-78
2021/08/01 02:38:12;;;;;;;7.53;5.50;;;12.80;99.90;;;;;;4948294;29;20034;-78
2021/08/01 02:40:40;;;;;;;9.02;6.00;;;13.00;99.90;;;;;;4932634;29;20042;-78
2021/08/01 02:43:11;;;;;;;8.13;6.15;;;13.10;99.90;;;;;;4932549;29;20106;-78
2021/08/01 02:45:40;;;;;;;8.52;6.05;;;13.10;99.90;;;;;;4932335;29;20035;-77
2021/08/01 02:48:11;;;;;;;9.43;5.88;;;13.20;99.90;;;;;;4932234;29;20047;-78
2021/08/01 02:50:38;;;;;;;7.45;5.72;;;13.20;99.90;;;;;;4916559;29;20087;-78
2021/08/01 02:53:09;;;;;;;10.95;5.97;;;13.20;99.90;;;;;;4932269;29;20452;-77
2021/08/01 02:55:37;;;;;;;8.18;7.03;;;13.20;99.90;;;;;;4932001;29;20028;-77
2021/08/01 02:58:06;;;;;;;10.00;6.22;;;13.20;99.90;;;;;;4932092;29;20067;-78
2021/08/01 03:00:41;;;;;;;10.35;6.85;;;13.20;99.90;;;;;;4932432;29;20031;-77
2021/08/01 03:03:09;;;;;;;10.38;5.80;;;13.20;99.90;;;;;;4916607;29;20035;-78
2021/08/01 03:05:36;;;;;;;9.60;7.10;;;13.20;99.90;;;;;;4931749;29;20035;-77
2021/08/01 03:08:06;;;;;;;8.73;6.43;;;13.30;99.90;;;;;;4931913;29;20259;-78
2021/08/01 03:10:34;;;;;;;9.88;7.03;;;13.40;99.90;;;;;;4949051;29;20024;-78
2021/08/01 03:13:02;;;;;;;12.95;8.10;;;13.40;99.90;;;;;;4931882;29;20023;-78
2021/08/01 03:15:27;;;;;;;9.75;6.82;;;13.60;99.90;;;;;;4933655;29;20038;-78
2021/08/01 03:17:53;;;;;;;9.63;7.65;;;13.60;99.90;;;;;;4950700;29;20129;-77
2021/08/01 03:20:19;;;;;;;10.15;7.13;;;13.60;99.90;;;;;;4967929;29;20027;-77
2021/08/01 03:23:23;;;;;;;14.45;8.27;;;13.60;99.90;;;;;;4967903;28;20049;-77
2021/08/01 03:26:07;;;;;;;12.30;8.10;;;13.80;99.90;;;;;;4967883;29;20431;-77
2021/08/01 03:28:34;;;;;;;10.88;8.07;;;13.80;99.90;;;;;;4966706;29;20057;-78
2021/08/01 03:30:59;;;;;;;9.95;7.80;;;13.80;99.90;;;;;;4966562;29;20023;-78
2021/08/01 03:33:27;;;;;;;12.30;8.70;;;13.80;99.90;;;;;;4950609;29;20114;-77
2021/08/01 03:35:53;;;;;;;9.50;7.57;;;13.90;99.90;;;;;;4949245;29;20035;-77
2021/08/01 03:38:44;;;;;;;9.93;7.57;;;13.90;99.90;;;;;;4935220;29;20042;-78
2021/08/01 03:41:30;;;;;;;9.90;7.75;;;14.00;99.90;;;;;;4934953;29;20035;-77
2021/08/01 03:43:56;;;;;;;11.27;8.50;;;14.00;99.90;;;;;;4931427;29;20425;-78
2021/08/01 03:46:42;;;;;;;12.20;9.68;;;14.10;99.90;;;;;;4931068;29;20063;-77
2021/08/01 03:49:08;;;;;;;9.57;7.53;;;14.10;99.90;;;;;;4855318;29;20050;-77
2021/08/01 03:51:34;;;;;;;12.02;7.95;;;14.10;99.90;;;;;;4870726;29;20053;-78
2021/08/01 03:53:59;;;;;;;9.57;7.75;;;14.10;99.90;;;;;;4886452;29;20042;-78
2021/08/01 03:56:25;;;;;;;11.43;8.50;;;14.00;99.90;;;;;;4870655;29;20045;-77
2021/08/01 03:58:50;;;;;;;11.57;8.43;;;14.10;99.90;;;;;;4870735;29;20064;-78
2021/08/01 04:01:16;;;;;;;11.70;8.13;;;14.10;99.90;;;;;;4871016;29;20046;-78
2021/08/01 04:03:43;;;;;;;11.65;8.07;;;14.10;99.90;;;;;;4870915;29;20029;-78
2021/08/01 04:06:08;;;;;;;9.45;8.48;;;14.10;99.90;;;;;;4870345;29;20046;-77
2021/08/01 04:08:34;;;;;;;11.13;8.55;;;14.10;99.90;;;;;;4870882;29;20044;-78
2021/08/01 04:11:06;;;;;;;9.98;8.70;;;14.10;99.90;;;;;;4870456;29;20034;-78
2021/08/01 04:13:33;;;;;;;13.90;10.05;;;14.20;99.90;;;;;;4870771;29;20041;-78
2021/08/01 04:15:59;;;;;;;11.55;9.45;;;14.20;99.90;;;;;;4877380;29;20045;-78
2021/08/01 04:18:27;;;;;;;12.05;9.10;;;14.10;99.90;;;;;;4873651;29;20040;-78
2021/08/01 04:20:52;;;;;;;9.02;8.07;;;14.20;99.90;;;;;;4873627;29;20432;-78
2021/08/01 04:23:18;;;;;;;13.00;9.48;;;14.20;99.90;;;;;;4889210;29;20036;-78
2021/08/01 04:25:43;;;;;;;12.05;8.80;;;14.20;99.90;;;;;;4890866;29;20062;-78
2021/08/01 04:28:09;;;;;;;13.20;10.05;;;14.20;99.90;;;;;;4930377;29;20031;-78
2021/08/01 04:30:35;;;;;;;9.70;8.57;;;14.20;99.90;;;;;;4914667;29;20087;-78
2021/08/01 04:33:00;;;;;;;10.65;8.30;;;14.30;99.90;;;;;;4914762;29;20503;-78
2021/08/01 04:35:26;;;;;;;9.63;8.48;;;14.30;99.90;;;;;;4914388;29;20473;-77
2021/08/01 04:37:51;;;;;;;11.25;8.38;;;14.30;99.90;;;;;;4910984;29;20036;-77
2021/08/01 04:40:17;;;;;;;9.43;7.85;;;14.30;99.90;;;;;;4928319;29;20051;-77
2021/08/01 04:42:42;;;;;;;9.13;8.15;;;14.30;99.90;;;;;;4928256;29;20044;-77
2021/08/01 04:45:09;;;;;;;10.77;8.50;;;14.40;99.90;;;;;;4928152;29;20032;-77
2021/08/01 04:47:34;;;;;;;8.23;7.38;;;14.40;99.90;;;;;;4928732;29;20385;-77
2021/08/01 04:50:00;;;;;;;11.20;8.43;;;14.40;99.90;;;;;;4947130;29;20041;-77
2021/08/01 04:52:25;;;;;;;11.13;8.15;;;14.40;99.90;;;;;;4946565;29;20033;-77
2021/08/01 04:54:51;;;;;;;10.60;9.05;;;14.50;99.90;;;;;;4929591;29;20083;-77
2021/08/01 04:57:17;;;;;;;8.73;7.82;;;14.50;99.90;;;;;;4946784;29;20039;-76
2021/08/01 04:59:42;;;;;;;8.52;7.28;;;14.50;99.90;;;;;;4946896;29;20035;-77
2021/08/01 05:02:08;;;;;;;10.38;8.20;;;14.50;99.90;;;;;;4930189;29;20103;-77
2021/08/01 05:04:33;;;;;;;10.98;8.27;;;14.50;99.90;;;;;;4948330;29;20091;-77
2021/08/01 05:06:59;;;;;;;10.45;8.40;;;14.60;99.90;;;;;;4948065;29;20090;-77
2021/08/01 05:09:25;;;;;;;11.43;7.45;;;14.60;99.90;;;;;;4930469;29;20051;-77
2021/08/01 05:11:50;;;;;;;10.93;8.60;;;14.60;99.90;;;;;;4929726;29;20036;-77
2021/08/01 05:14:16;;;;;;;11.55;8.35;;;14.70;99.90;;;;;;4946932;29;20027;-77
2021/08/01 05:16:42;;;;;;;18.25;11.15;;;14.70;99.90;;;;;;4941148;29;20427;-77
2021/08/01 05:19:07;;;;;;;11.95;9.18;;;14.70;99.90;;;;;;4948523;29;20027;-77
2021/08/01 05:21:33;;;;;;;12.45;9.23;;;14.80;99.90;;;;;;4948427;29;20050;-77
2021/08/01 05:23:59;;;;;;;11.20;8.75;;;14.80;99.90;;;;;;4968232;28;20034;-77
2021/08/01 05:26:25;;;;;;;13.77;10.57;;;14.80;99.90;;;;;;4969226;29;20031;-77
2021/08/01 05:28:51;;;;;;;13.48;11.55;;;14.90;99.90;;;;;;4952145;29;20039;-77
2021/08/01 05:31:16;;;;;;;13.48;9.93;;;14.90;99.90;;;;;;4969318;29;20038;-77
2021/08/01 05:33:42;;;;;;;10.75;8.77;;;15.00;99.90;;;;;;4952008;29;20031;-78
2021/08/01 05:36:09;;;;;;;14.07;8.73;;;15.00;99.90;;;;;;4933272;29;20059;-79
2021/08/01 05:38:36;;;;;;;10.35;9.07;;;15.00;99.90;;;;;;4949394;29;20036;-81
2021/08/01 05:41:02;;;;;;;11.43;9.13;;;15.00;99.90;;;;;;4928903;29;20040;-82
2021/08/01 05:43:28;;;;;;;12.20;7.90;;;15.00;99.90;;;;;;4929809;29;20064;-77
2021/08/01 05:45:53;;;;;;;15.30;10.52;;;15.00;99.90;;;;;;4930984;29;20032;-78
2021/08/01 05:48:19;;;;;;;17.92;12.85;;;15.10;99.90;;;;;;4912495;23;20139;-77
2021/08/01 05:50:45;;;;;;;18.50;11.73;;;15.00;99.90;;;;;;4895556;29;20036;-78
2021/08/01 05:53:10;;;;;;;15.05;10.82;;;15.10;99.90;;;;;;4910462;29;20084;-78
2021/08/01 05:55:36;;;;;;;21.95;13.30;;;15.20;99.90;;;;;;4912085;29;20033;-77
2021/08/01 05:58:01;;;;;;;23.50;14.70;;;15.20;99.90;;;;;;4895255;29;20070;-77
2021/08/01 06:00:27;;;;;;;20.50;14.60;;;15.20;99.90;;;;;;4912131;29;20028;-77
2021/08/01 06:02:53;;;;;;;18.25;12.77;;;15.30;99.90;;;;;;4912252;29;20043;-77
2021/08/01 06:05:19;;;;;;;17.90;13.10;;;15.40;99.90;;;;;;4911945;29;20084;-77
2021/08/01 06:07:45;;;;;;;25.25;16.65;;;15.50;99.90;;;;;;4912023;29;20036;-77
2021/08/01 06:10:11;;;;;;;21.63;14.23;;;15.50;99.90;;;;;;4903548;29;20040;-82
2021/08/01 06:12:36;;;;;;;25.05;16.98;;;15.50;99.90;;;;;;4876444;29;20044;-77
2021/08/01 06:15:03;;;;;;;23.85;17.25;;;15.60;99.90;;;;;;4897286;29;20057;-79
2021/08/01 06:17:28;;;;;;;18.88;15.43;;;15.60;99.90;;;;;;4916345;29;20060;-78
2021/08/01 06:19:55;;;;;;;21.88;16.50;;;15.70;99.90;;;;;;4894822;29;20033;-79
2021/08/01 06:22:25;;;;;;;32.63;21.10;;;15.70;99.90;;;;;;4910087;29;20441;-78
2021/08/01 06:24:51;;;;;;;25.67;18.58;;;15.50;99.90;;;;;;4894936;29;20032;-78
2021/08/01 06:27:17;;;;;;;21.23;17.08;;;15.60;99.90;;;;;;4911566;29;20047;-77
2021/08/01 06:29:43;;;;;;;27.10;18.00;;;15.70;99.90;;;;;;4911501;29;20037;-78
2021/08/01 06:32:09;;;;;;;33.45;23.38;;;15.70;99.90;;;;;;4910278;29;20033;-77
2021/08/01 06:34:35;;;;;;;33.45;23.40;;;15.60;99.90;;;;;;4909288;29;20047;-77
2021/08/01 06:37:00;;;;;;;29.63;20.80;;;15.50;99.90;;;;;;4911058;29;20045;-77
2021/08/01 06:39:29;;;;;;;31.08;20.27;;;15.60;99.90;;;;;;4910722;29;20084;-79
2021/08/01 06:41:57;;;;;;;31.20;20.30;;;15.50;99.90;;;;;;4910988;29;20047;-77
2021/08/01 06:44:23;;;;;;;33.33;21.42;;;15.50;99.90;;;;;;4892398;29;20049;-77
2021/08/01 06:46:48;;;;;;;32.67;21.55;;;15.50;99.90;;;;;;4875250;29;20096;-77
2021/08/01 06:49:14;;;;;;;30.92;21.98;;;15.50;99.90;;;;;;4891894;29;20052;-78
2021/08/01 06:51:40;;;;;;;28.80;20.65;;;15.50;99.90;;;;;;4875621;29;20078;-77
2021/08/01 06:54:05;;;;;;;34.13;21.88;;;15.60;99.90;;;;;;4892152;29;20044;-78
2021/08/01 06:56:31;;;;;;;31.95;22.08;;;15.60;99.90;;;;;;4891883;29;20048;-78
2021/08/01 06:58:57;;;;;;;29.58;18.73;;;15.60;99.90;;;;;;4891990;29;20033;-81
2021/08/01 07:01:22;;;;;;;22.60;17.45;;;15.60;99.90;;;;;;4892130;29;20097;-79
2021/08/01 07:03:48;;;;;;;26.45;16.13;;;15.80;99.90;;;;;;4891945;29;20025;-79
2021/08/01 07:06:13;;;;;;;31.13;20.17;;;15.80;99.90;;;;;;4875162;29;20057;-78
2021/08/01 07:08:39;;;;;;;21.77;14.90;;;15.80;99.90;;;;;;4874964;29;20037;-79
2021/08/01 07:11:05;;;;;;;31.20;21.45;;;15.90;99.90;;;;;;4897584;29;20028;-77
2021/08/01 07:13:31;;;;;;;25.50;17.13;;;15.80;99.90;;;;;;4891707;29;20648;-83
2021/08/01 07:16:01;;;;;;;27.33;17.88;;;16.00;99.90;;;;;;4903045;29;20060;-78
2021/08/01 07:18:27;;;;;;;30.95;19.17;;;16.00;99.90;;;;;;4912353;29;20067;-78
2021/08/01 07:20:52;;;;;;;31.35;20.40;;;16.00;99.90;;;;;;4912374;29;20032;-80
2021/08/01 07:23:18;;;;;;;28.25;18.50;;;15.90;99.90;;;;;;4915405;29;20048;-81
2021/08/01 07:25:43;;;;;;;25.75;16.55;;;16.00;99.90;;;;;;4909477;29;20071;-79
2021/08/01 07:28:09;;;;;;;25.15;12.80;;;16.00;99.90;;;;;;4893101;29;20032;-78
2021/08/01 07:30:34;;;;;;;26.67;15.50;;;16.00;99.90;;;;;;4908966;29;20041;-78
2021/08/01 07:33:00;;;;;;;26.38;15.73;;;16.00;99.90;;;;;;4877677;29;20040;-78
2021/08/01 07:35:26;;;;;;;19.02;11.60;;;16.20;99.90;;;;;;4892937;29;20036;-78
2021/08/01 07:37:52;;;;;;;31.40;16.70;;;16.10;99.90;;;;;;4893099;29;20028;-78
2021/08/01 07:40:17;;;;;;;32.38;18.50;;;15.90;99.90;;;;;;4909558;29;20029;-78
2021/08/01 07:42:43;;;;;;;27.70;16.70;;;15.80;99.90;;;;;;4892904;29;20043;-78
2021/08/01 07:45:23;;;;;;;24.95;13.82;;;15.80;99.90;;;;;;4909697;29;20096;-78
2021/08/01 07:47:48;;;;;;;23.05;14.52;;;16.00;99.90;;;;;;4909444;29;20301;-78
2021/08/01 07:50:15;;;;;;;27.30;15.43;;;16.00;99.90;;;;;;4877650;29;20032;-78
2021/08/01 07:52:40;;;;;;;27.45;14.73;;;15.80;99.90;;;;;;4893061;29;20033;-77
2021/08/01 07:55:08;;;;;;;31.42;16.90;;;15.80;99.90;;;;;;4892541;29;20036;-77
2021/08/01 07:57:34;;;;;;;25.15;14.40;;;15.80;99.90;;;;;;4909647;29;20434;-77
2021/08/01 08:00:04;;;;;;;30.92;17.77;;;15.90;99.90;;;;;;4909420;29;20046;-79
2021/08/01 08:02:39;;;;;;;42.13;21.45;;;15.70;99.90;;;;;;4909874;29;20035;-78
2021/08/01 08:05:05;;;;;;;35.78;19.33;;;15.40;99.90;;;;;;4909672;29;20193;-77
2021/08/01 08:07:31;;;;;;;35.80;18.67;;;15.40;99.90;;;;;;4909759;29;20285;-77
2021/08/01 08:09:57;;;;;;;23.50;13.32;;;15.50;99.90;;;;;;4909031;29;20036;-79
2021/08/01 08:12:23;;;;;;;32.90;17.77;;;15.70;99.90;;;;;;4909035;29;20163;-79
2021/08/01 08:14:48;;;;;;;36.35;20.30;;;15.70;99.90;;;;;;4892568;29;20065;-78
2021/08/01 08:17:14;;;;;;;37.58;21.70;;;15.60;99.90;;;;;;4908275;29;20048;-79
2021/08/01 08:19:40;;;;;;;35.22;18.55;;;15.60;99.90;;;;;;4928810;29;20032;-81
2021/08/01 08:22:07;;;;;;;46.50;24.60;;;15.60;99.90;;;;;;4928748;29;20481;-83
2021/08/01 08:24:33;;;;;;;34.25;18.95;;;15.50;99.90;;;;;;4928580;29;20088;-79
2021/08/01 08:26:58;;;;;;;38.88;22.35;;;15.70;99.90;;;;;;4928244;29;20040;-79
2021/08/01 08:29:24;;;;;;;39.78;21.77;;;15.60;99.90;;;;;;4927157;29;20052;-81
2021/08/01 08:31:54;;;;;;;38.40;21.25;;;15.70;99.90;;;;;;4928711;29;20040;-80
2021/08/01 08:34:20;;;;;;;;;;;15.70;99.90;;;;;;4928793;29;20038;-78
2021/08/01 08:36:47;;;;;;;35.65;19.77;;;15.90;99.90;;;;;;4920593;29;19919;-79
2021/08/01 08:39:14;;;;;;;37.85;18.90;;;15.90;99.90;;;;;;4892544;29;20028;-78
2021/08/01 08:41:40;;;;;;;36.78;20.70;;;16.00;99.90;;;;;;4892743;29;20504;-81
2021/08/01 08:44:05;;;;;;;38.55;20.85;;;15.90;99.90;;;;;;4892676;29;20090;-78
2021/08/01 08:50:20;;;;;;;34.35;19.48;;;16.00;99.90;;;;;;4813172;29;20096;-83
2021/08/01 08:52:47;;;;;;;38.70;19.95;;;16.00;99.90;;;;;;4814767;29;20069;-78
2021/08/01 08:55:14;;;;;;;30.70;17.67;;;16.00;99.90;;;;;;4799495;29;20046;-84
2021/08/01 08:57:49;;;;;;;32.50;17.70;;;16.20;99.90;;;;;;4814945;29;20050;-79
2021/08/01 09:00:15;;;;;;;37.25;20.27;;;16.00;99.90;;;;;;4803053;29;20146;-78
2021/08/01 09:02:41;;;;;;;37.55;19.40;;;16.00;99.90;;;;;;4818426;29;20043;-78
2021/08/01 09:05:08;;;;;;;24.02;14.60;;;16.20;99.90;;;;;;4818139;29;20046;-79
2021/08/01 09:07:35;;;;;;;32.28;18.27;;;16.30;99.90;;;;;;4818180;29;20069;-78
2021/08/01 09:10:00;;;;;;;30.70;17.80;;;16.30;99.90;;;;;;4818074;29;20038;-77
2021/08/01 09:12:26;;;;;;;39.30;21.85;;;16.30;99.90;;;;;;4818306;29;20041;-79
2021/08/01 09:15:30;;;;;;;32.20;18.00;;;16.10;99.90;;;;;;4818175;29;20535;-78
2021/08/01 09:17:57;;;;;;;31.08;17.55;;;16.30;99.90;;;;;;4717252;30;20216;-80
2021/08/01 09:20:30;;;;;;;28.98;15.95;;;16.40;99.90;;;;;;4746667;30;20056;-78
2021/08/01 09:23:01;;;;;;;30.27;16.58;;;16.50;99.90;;;;;;4746616;30;20057;-79
2021/08/01 09:25:31;;;;;;;24.70;14.75;;;16.50;99.90;;;;;;4755025;29;20437;-77
2021/08/01 09:28:15;;;;;;;24.30;13.80;;;16.70;99.90;;;;;;4817989;29;20042;-76
2021/08/01 09:30:46;;;;;;;30.30;18.45;;;16.80;99.90;;;;;;4817810;29;20043;-79
2021/08/01 09:33:15;;;;;;;26.92;16.48;;;16.70;99.90;;;;;;4787871;29;20110;-80
2021/08/01 09:35:41;;;;;;;31.75;19.23;;;16.70;99.90;;;;;;4817731;29;20111;-80
2021/08/01 09:38:07;;;;;;;23.35;14.65;;;16.60;99.90;;;;;;4817811;29;20420;-80
2021/08/01 09:40:34;;;;;;;24.45;15.23;;;17.00;99.90;;;;;;4802619;29;20118;-78
2021/08/01 09:43:13;;;;;;;24.02;14.25;;;17.10;99.90;;;;;;4817798;29;20090;-78
2021/08/01 09:45:40;;;;;;;28.80;16.63;;;17.20;99.90;;;;;;4802605;29;20139;-80
2021/08/01 09:48:21;;;;;;;28.52;16.00;;;17.00;99.90;;;;;;4824078;29;20069;-80
2021/08/01 09:51:01;;;;;;;23.75;14.05;;;17.00;99.90;;;;;;4911904;29;20075;-81
2021/08/01 09:53:28;;;;;;;18.48;12.77;;;17.10;99.90;;;;;;4912091;29;20041;-82
2021/08/01 09:56:30;;;;;;;17.50;11.80;;;17.10;99.90;;;;;;4879519;29;20056;-85
2021/08/01 09:58:55;;;;;;;19.38;12.13;;;17.20;99.90;;;;;;4835287;29;20042;-78
2021/08/01 10:01:21;;;;;;;19.15;12.90;;;17.20;99.90;;;;;;4835418;29;20080;-81
2021/08/01 10:03:49;;;;;;;20.02;11.85;;;17.10;99.90;;;;;;4835649;29;20063;-79
2021/08/01 10:06:21;;;;;;;20.77;12.10;;;17.30;99.90;;;;;;4835518;29;20151;-80
2021/08/01 10:08:52;;;;;;;19.13;11.57;;;17.60;99.90;;;;;;4835045;29;20094;-81
2021/08/01 10:11:23;;;;;;;19.60;12.25;;;17.70;99.90;;;;;;4834844;29;20455;-78
2021/08/01 10:13:54;;;;;;;22.02;12.75;;;17.90;99.90;;;;;;4835150;29;20043;-79
2021/08/01 10:16:21;;;;;;;21.50;12.73;;;17.80;99.90;;;;;;4843472;29;20042;-80
2021/08/01 10:18:48;;;;;;;19.17;12.38;;;18.00;99.90;;;;;;4823044;29;20112;-78
2021/08/01 10:21:32;;;;;;;18.98;12.02;;;18.10;99.90;;;;;;4838187;29;20053;-79
2021/08/01 10:24:00;;;;;;;16.92;9.65;;;18.40;99.90;;;;;;4853563;29;20041;-77
2021/08/01 10:26:36;;;;;;;15.45;11.13;;;18.40;99.90;;;;;;4853217;29;20049;-78
2021/08/01 10:29:06;;;;;;;17.17;10.27;;;18.60;99.90;;;;;;4853405;29;20065;-78
2021/08/01 10:31:36;;;;;;;15.25;9.70;;;18.50;99.90;;;;;;4839383;29;20509;-78
2021/08/01 10:34:15;;;;;;;;;;;18.50;99.90;;;;;;4908943;29;20096;-78
2021/08/01 10:36:46;;;;;;;15.50;9.82;;;18.90;99.90;;;;;;4909100;29;19920;-78
2021/08/01 10:39:13;;;;;;;16.20;9.00;;;19.50;99.90;;;;;;4859936;29;20037;-79
2021/08/01 10:41:39;;;;;;;15.43;9.27;;;19.90;99.90;;;;;;4875497;29;20041;-79
2021/08/01 10:44:10;;;;;;;17.17;10.98;;;20.30;99.90;;;;;;4860329;29;20502;-81
2021/08/01 10:46:56;;;;;;;17.33;10.48;;;20.40;99.90;;;;;;4875273;29;20040;-79
2021/08/01 10:49:22;;;;;;;15.55;10.10;;;20.70;99.90;;;;;;4801027;29;20095;-80
2021/08/01 10:51:48;;;;;;;17.23;11.50;;;20.20;99.90;;;;;;4816494;29;20106;-78
2021/08/01 10:54:19;;;;;;;17.67;11.65;;;19.90;99.90;;;;;;4801386;29;20122;-80
2021/08/01 10:56:46;;;;;;;16.27;9.98;;;19.80;99.90;;;;;;4816183;29;20061;-79
2021/08/01 10:59:45;;;;;;;13.15;9.32;;;19.70;99.90;;;;;;4801306;29;20039;-77
2021/08/01 11:02:16;;;;;;;14.80;9.60;;;19.80;99.90;;;;;;4801248;29;20042;-80
2021/08/01 11:04:46;;;;;;;14.13;9.48;;;20.10;99.90;;;;;;4816234;29;20046;-79
2021/08/01 11:07:32;;;;;;;16.05;10.48;;;20.40;99.90;;;;;;4801079;29;20051;-80
2021/08/01 11:10:13;;;;;;;13.10;9.68;;;20.40;99.90;;;;;;4809924;29;20073;-79
2021/08/01 11:12:41;;;;;;;13.25;9.25;;;20.40;99.90;;;;;;4800886;29;20042;-79
2021/08/01 11:15:11;;;;;;;15.25;9.82;;;20.10;99.90;;;;;;4800883;29;20056;-79
2021/08/01 11:17:43;;;;;;;12.32;8.38;;;20.00;99.90;;;;;;4815546;29;20042;-78
2021/08/01 11:20:23;;;;;;;12.70;8.70;;;19.80;99.90;;;;;;4800243;29;20046;-77
2021/08/01 11:22:50;;;;;;;11.60;7.78;;;19.30;99.90;;;;;;4815497;29;20057;-79
2021/08/01 11:25:30;;;;;;;10.70;7.93;;;19.20;99.90;;;;;;4816563;29;20140;-79
2021/08/01 11:28:10;;;;;;;13.18;9.63;;;19.10;99.90;;;;;;4884827;29;20033;-78
2021/08/01 11:33:30;;;;;;;14.35;9.55;;;18.50;99.90;;;;;;4890192;29;20060;-78
2021/08/01 11:36:15;;;;;;;12.32;7.82;;;18.40;99.90;;;;;;4891344;29;20045;-78
2021/08/01 11:38:59;;;;;;;13.70;8.93;;;18.30;99.90;;;;;;4910314;29;20043;-79
2021/08/01 11:41:33;;;;;;;13.32;8.00;;;18.10;99.90;;;;;;4893737;29;20048;-79
2021/08/01 11:44:02;;;;;;;14.40;9.77;;;17.90;99.90;;;;;;4878548;29;20033;-83
2021/08/01 11:46:50;;;;;;;11.70;8.50;;;17.80;99.90;;;;;;4877407;29;20040;-81
2021/08/01 11:49:41;;;;;;;18.02;11.50;;;17.60;99.90;;;;;;4784971;29;20064;-81
2021/08/01 11:52:08;;;;;;;13.10;8.48;;;17.40;99.90;;;;;;4812901;29;20051;-80
2021/08/01 11:54:43;;;;;;;14.23;8.70;;;17.40;99.90;;;;;;4815253;29;20046;-82
2021/08/01 11:57:11;;;;;;;12.07;7.90;;;17.40;99.90;;;;;;4815350;29;20050;-81
2021/08/01 11:59:38;;;;;;;19.55;12.45;;;17.30;99.90;;;;;;4815355;29;20083;-84
2021/08/01 12:02:09;;;;;;;16.63;11.25;;;17.20;99.90;;;;;;4815532;29;20103;-83
2021/08/01 12:04:35;;;;;;;17.02;11.00;;;17.30;99.90;;;;;;4800294;29;20042;-82
2021/08/01 12:07:00;;;;;;;19.15;10.98;;;17.40;99.90;;;;;;4815605;29;20050;-84
2021/08/01 12:09:28;;;;;;;15.18;10.35;;;17.50;99.90;;;;;;4815278;29;20090;-80
2021/08/01 12:11:59;;;;;;;16.88;9.75;;;17.60;99.90;;;;;;4815108;29;20099;-80
2021/08/01 12:14:34;;;;;;;13.73;8.80;;;17.70;99.90;;;;;;4814586;29;20051;-79
2021/08/01 12:17:07;;;;;;;12.40;8.32;;;17.70;99.90;;;;;;4828187;29;20050;-77
2021/08/01 12:19:46;;;;;;;12.50;8.10;;;17.60;99.90;;;;;;4819355;29;20103;-78
2021/08/01 12:22:22;;;;;;;10.70;6.85;;;17.80;99.90;;;;;;4763500;29;20057;-78
2021/08/01 12:24:47;;;;;;;10.40;7.10;;;18.10;99.90;;;;;;4812435;29;20034;-78
2021/08/01 12:27:15;;;;;;;10.38;7.05;;;18.20;99.90;;;;;;4913685;29;20055;-78
2021/08/01 12:29:49;;;;;;;10.68;7.32;;;18.30;99.90;;;;;;4915958;29;20033;-78
2021/08/01 12:32:20;;;;;;;13.90;9.30;;;18.30;99.90;;;;;;4892602;29;20036;-78
2021/08/01 12:34:46;;;;;;;13.73;8.18;;;18.20;99.90;;;;;;4913535;29;20043;-79
2021/08/01 12:37:12;;;;;;;14.18;8.93;;;18.20;99.90;;;;;;4913235;29;20044;-78
2021/08/01 12:39:51;;;;;;;18.90;9.70;;;18.10;99.90;;;;;;4880794;29;20032;-78
2021/08/01 12:42:19;;;;;;;11.60;7.50;;;17.90;99.90;;;;;;4896456;29;20036;-78
2021/08/01 12:44:56;;;;;;;18.27;11.77;;;17.80;99.90;;;;;;4896199;29;20036;-78
2021/08/01 12:47:23;;;;;;;16.48;10.90;;;17.60;99.90;;;;;;4896211;29;20040;-77
2021/08/01 12:49:49;;;;;;;15.65;10.02;;;17.60;99.90;;;;;;4892849;29;20406;-78
2021/08/01 12:52:23;;;;;;;15.38;9.82;;;17.50;99.90;;;;;;4893235;29;20093;-77
2021/08/01 12:54:50;;;;;;;18.55;11.98;;;17.60;99.90;;;;;;4878152;29;20041;-78